Time;durP1;ratioP1;P1;durP2;ratioP2;P2;SDS_P1;SDS_P2;PMS_P1;PMS_P2;Temp;Humidity;BMP_temperature;BMP_pressure;BME280_temperature;BME280_humidity;BME280_pressure;Samples;Min_cycle;Max_cycle;Signal;HPM_P1;HPM_P2
2022/08/17 16:23:42;;;;;;;38.47;29.10;;;;;;;25.59;56.62;99305.94;5089774;27;20065;-81
2022/08/17 16:26:07;;;;;;;34.95;28.20;;;;;;;25.33;57.86;99310.38;5023758;28;20096;-82
2022/08/17 16:28:33;;;;;;;40.40;29.85;;;;;;;25.41;57.65;99309.31;5050260;28;20068;-80
2022/08/17 16:30:58;;;;;;;83.10;34.58;;;;;;;25.67;57.32;99320.78;5052998;28;20087;-82
2022/08/17 16:33:23;;;;;;;37.10;26.73;;;;;;;25.61;57.43;99320.31;5053898;28;20040;-83
2022/08/17 16:35:48;;;;;;;41.58;31.85;;;;;;;25.53;57.84;99324.19;5052947;28;20349;-83
2022/08/17 16:38:14;;;;;;;35.00;27.77;;;;;;;25.12;59.04;99322.03;5053337;28;20072;-82
2022/08/17 16:40:40;;;;;;;37.47;30.13;;;;;;;25.29;58.67;99315.91;5070048;28;20036;-84
2022/08/17 16:43:09;;;;;;;34.45;28.10;;;;;;;25.46;58.18;99316.53;5073579;28;20026;-82
2022/08/17 16:45:38;;;;;;;36.45;27.98;;;;;;;25.39;58.79;99316.44;5073949;28;20033;-84
2022/08/17 16:48:04;;;;;;;39.92;30.35;;;;;;;25.32;58.92;99322.72;5061015;28;20036;-83
2022/08/17 16:50:31;;;;;;;35.08;28.00;;;;;;;25.29;58.54;99323.47;5048656;28;20083;-85
2022/08/17 16:53:05;;;;;;;38.45;30.27;;;;;;;25.10;59.92;99324.41;5053924;28;20439;-85
2022/08/17 16:55:31;;;;;;;35.50;28.75;;;;;;;25.50;58.74;99314.59;5053968;28;20128;-82
2022/08/17 16:57:56;;;;;;;39.08;30.35;;;;;;;25.45;58.42;99317.72;5036219;28;20033;-83
2022/08/17 17:00:21;;;;;;;42.53;33.97;;;;;;;25.00;59.61;99332.22;5053244;28;20037;-83
2022/08/17 17:02:48;;;;;;;43.17;33.47;;;;;;;25.34;59.30;99333.50;5052034;28;20064;-83
2022/08/17 17:05:58;;;;;;;40.10;32.15;;;;;;;25.26;58.91;99330.59;5036193;28;20037;-83
2022/08/17 17:08:36;;;;;;;43.33;32.25;;;;;;;25.02;59.44;99341.00;5055418;28;20122;-83
2022/08/17 17:11:13;;;;;;;45.83;32.58;;;;;;;25.03;59.70;99345.41;5054583;28;20037;-83
2022/08/17 17:13:58;;;;;;;39.28;31.77;;;;;;;24.70;60.84;99336.50;5054148;28;20081;-83
2022/08/17 17:16:29;;;;;;;38.50;29.88;;;;;;;25.02;59.82;99331.84;5052891;28;20044;-83
2022/08/17 17:19:09;;;;;;;43.58;29.70;;;;;;;25.16;59.54;99345.22;5053503;28;20072;-84
2022/08/17 17:21:48;;;;;;;33.80;24.70;;;;;;;24.98;59.34;99350.50;5055129;28;20047;-81
2022/08/17 17:24:19;;;;;;;39.20;28.80;;;;;;;24.76;60.13;99345.34;5048763;28;20053;-84
2022/08/17 17:26:59;;;;;;;38.42;27.85;;;;;;;25.14;59.26;99353.94;5052220;28;20037;-80
2022/08/17 17:29:42;;;;;;;37.38;30.77;;;;;;;24.90;59.51;99363.47;5020673;28;20477;-82
2022/08/17 17:32:26;;;;;;;36.67;29.15;;;;;;;24.91;59.39;99357.53;5012762;28;20038;-84
2022/08/17 17:34:59;;;;;;;36.63;28.40;;;;;;;24.66;60.08;99352.34;5013408;28;20038;-83
2022/08/17 17:37:32;;;;;;;36.17;27.65;;;;;;;24.41;60.75;99347.13;5011109;28;20096;-79
2022/08/17 17:40:03;;;;;;;37.83;27.33;;;;;;;24.25;61.19;99355.56;5025911;28;20107;-79
2022/08/17 17:42:31;;;;;;;33.70;26.58;;;;;;;24.29;61.20;99356.44;5032288;28;20045;-82
2022/08/17 17:45:02;;;;;;;33.42;25.95;;;;;;;24.44;61.11;99367.88;5032778;28;20122;-83
2022/08/17 17:47:29;;;;;;;39.75;25.73;;;;;;;24.27;61.53;99363.56;5016449;28;20065;-78
2022/08/17 17:49:55;;;;;;;41.88;27.55;;;;;;;24.59;60.65;99363.38;5027939;28;20052;-79
2022/08/17 17:52:46;;;;;;;30.88;24.65;;;;;;;24.52;60.91;99369.63;5029604;28;20041;-81
2022/08/17 17:55:26;;;;;;;33.20;26.45;;;;;;;24.41;60.70;99363.03;5028373;28;20500;-81
2022/08/17 17:58:13;;;;;;;29.23;24.20;;;;;;;24.41;60.79;99380.53;5025677;28;20037;-79
2022/08/17 18:01:00;;;;;;;34.70;27.50;;;;;;;23.87;62.57;99383.84;5026528;28;20480;-79
2022/08/17 18:03:50;;;;;;;32.88;26.00;;;;;;;24.10;62.26;99399.81;5028651;28;20049;-79
2022/08/17 18:06:34;;;;;;;32.72;26.73;;;;;;;24.09;61.99;99412.13;5026552;28;20034;-79
2022/08/17 18:09:44;;;;;;;41.85;26.27;;;;;;;24.04;62.07;99415.22;5026539;28;20463;-80
2022/08/17 18:12:52;;;;;;;35.53;23.90;;;;;;;24.08;61.90;99413.28;5014784;28;20421;-80
2022/08/17 18:15:28;;;;;;;31.90;27.60;;;;;;;23.99;62.22;99404.34;5015995;28;20045;-79
2022/08/17 18:18:18;;;;;;;33.25;25.52;;;;;;;24.10;61.71;99394.25;5024441;28;20403;-80
2022/08/17 18:20:49;;;;;;;34.60;26.05;;;;;;;24.06;61.86;99398.94;5026560;28;20435;-80
2022/08/17 18:23:15;;;;;;;38.45;27.55;;;;;;;24.24;61.48;99398.53;5031959;28;20041;-80
2022/08/17 18:25:43;;;;;;;33.85;24.33;;;;;;;24.35;60.78;99407.88;5031185;28;20037;-80
2022/08/17 18:28:20;;;;;;;33.55;25.27;;;;;;;24.16;61.94;99414.25;5028015;28;20038;-79
2022/08/17 18:31:13;;;;;;;35.75;26.52;;;;;;;23.89;62.44;99416.88;5028232;28;20136;-78
2022/08/17 18:33:41;;;;;;;43.13;28.08;;;;;;;23.89;62.82;99414.91;5029261;28;20056;-79
2022/08/17 18:36:07;;;;;;;39.67;27.10;;;;;;;23.86;62.49;99412.84;5029536;28;20041;-81
2022/08/17 18:38:35;;;;;;;34.30;27.20;;;;;;;24.08;62.21;99418.84;5029146;28;20096;-80
2022/08/17 18:41:38;;;;;;;38.38;28.02;;;;;;;24.27;61.60;99411.72;5035965;28;20072;-81
2022/08/17 18:44:18;;;;;;;40.10;28.95;;;;;;;24.19;61.75;99407.13;5021698;28;20038;-80
2022/08/17 18:46:43;;;;;;;37.42;29.02;;;;;;;24.25;61.66;99414.06;5035995;28;20119;-83
2022/08/17 18:49:18;;;;;;;36.33;26.13;;;;;;;24.15;61.94;99415.41;5018541;28;20580;-83
2022/08/17 18:51:44;;;;;;;34.45;27.00;;;;;;;24.12;62.13;99413.38;5025875;28;20765;-85
2022/08/17 18:54:18;;;;;;;34.92;26.17;;;;;;;23.83;63.24;99413.56;5034459;28;20214;-86
2022/08/17 18:56:53;;;;;;;35.38;27.13;;;;;;;23.79;63.42;99421.03;5032990;28;20481;-78
2022/08/17 18:59:39;;;;;;;36.42;26.23;;;;;;;23.88;62.95;99432.75;5027577;28;20041;-79
2022/08/17 19:02:12;;;;;;;44.65;31.02;;;;;;;23.89;62.99;99423.25;5025379;28;20107;-83
2022/08/17 19:04:57;;;;;;;34.73;27.57;;;;;;;23.61;64.22;99429.81;5030678;28;20044;-83
2022/08/17 19:07:31;;;;;;;37.67;29.08;;;;;;;23.64;64.11;99442.97;5025060;28;20090;-79
2022/08/17 19:10:39;;;;;;;41.42;30.65;;;;;;;23.89;63.47;99447.50;5012931;28;20045;-79
2022/08/17 19:13:19;;;;;;;35.80;27.88;;;;;;;23.83;63.27;99458.09;5007223;28;20045;-81
2022/08/17 19:15:58;;;;;;;36.78;29.20;;;;;;;23.72;63.77;99460.63;5031142;28;20048;-85
2022/08/17 19:18:30;;;;;;;35.63;27.65;;;;;;;23.66;63.93;99470.41;5042075;28;20123;-86
2022/08/17 19:21:08;;;;;;;41.10;31.52;;;;;;;23.72;64.03;99465.38;5034555;28;20050;-82
2022/08/17 19:23:45;;;;;;;38.22;30.30;;;;;;;23.67;64.06;99467.31;5014910;28;20041;-82
2022/08/17 19:26:19;;;;;;;40.85;28.25;;;;;;;23.70;64.10;99484.41;5045448;28;20500;-78
2022/08/17 19:28:58;;;;;;;41.63;32.72;;;;;;;23.60;64.58;99471.88;4998415;28;20496;-78
2022/08/17 19:31:28;;;;;;;36.80;29.02;;;;;;;23.59;64.67;99476.63;5013475;28;20053;-85
2022/08/17 19:33:55;;;;;;;39.83;31.83;;;;;;;23.53;64.86;99478.09;5013656;28;20041;-85
2022/08/17 19:36:26;;;;;;;40.03;32.15;;;;;;;23.46;65.23;99477.88;5014065;28;20053;-85
2022/08/17 19:39:24;;;;;;;38.70;29.20;;;;;;;23.35;65.69;99485.97;5018690;28;20061;-86
2022/08/17 19:42:00;;;;;;;37.42;29.65;;;;;;;23.34;65.86;99476.81;5036185;28;20151;-90
2022/08/17 19:44:50;;;;;;;42.95;31.55;;;;;;;23.30;65.71;99462.00;5035262;28;20184;-91
2022/08/17 19:47:29;;;;;;;43.10;31.77;;;;;;;23.11;66.05;99462.72;5033260;28;20037;-83
2022/08/17 19:50:17;;;;;;;40.25;31.25;;;;;;;23.13;66.35;99461.19;5032806;28;20492;-83
2022/08/17 19:52:42;;;;;;;41.92;31.35;;;;;;;23.17;66.07;99462.09;5053577;28;20087;-86
2022/08/17 19:55:19;;;;;;;40.67;29.97;;;;;;;23.08;66.37;99458.69;5052909;28;20613;-85
2022/08/17 19:57:55;;;;;;;41.83;29.27;;;;;;;22.95;66.83;99450.44;5053781;28;20258;-86
2022/08/17 20:00:21;;;;;;;37.72;29.33;;;;;;;22.97;66.83;99448.09;5030050;28;20063;-85
2022/08/17 20:03:14;;;;;;;42.67;31.42;;;;;;;22.97;67.19;99453.66;5052553;28;20136;-83
2022/08/17 20:05:48;;;;;;;42.83;30.03;;;;;;;23.03;66.58;99458.94;5052756;28;20124;-84
2022/08/17 20:08:21;;;;;;;41.95;32.67;;;;;;;23.00;66.65;99456.88;5033732;28;20765;-83
2022/08/17 20:10:54;;;;;;;39.47;28.88;;;;;;;22.95;67.15;99463.50;5048764;28;20102;-83
2022/08/17 20:13:25;;;;;;;40.13;30.52;;;;;;;22.83;67.68;99464.38;5039570;28;20041;-83
2022/08/17 20:15:51;;;;;;;45.05;33.10;;;;;;;22.79;67.52;99458.75;5011232;28;20053;-83
2022/08/17 20:18:30;;;;;;;44.97;32.38;;;;;;;22.70;67.87;99467.22;5028118;28;20041;-83
2022/08/17 20:21:16;;;;;;;46.90;33.15;;;;;;;22.64;67.86;99468.63;5031698;28;20045;-81
2022/08/17 20:23:59;;;;;;;42.53;31.45;;;;;;;22.59;68.28;99475.25;5031056;28;20046;-82
2022/08/17 20:26:43;;;;;;;40.72;29.98;;;;;;;22.57;68.06;99479.53;5032132;28;20045;-84
2022/08/17 20:29:08;;;;;;;38.28;29.55;;;;;;;22.46;68.28;99477.25;5030666;28;20058;-82
2022/08/17 20:31:54;;;;;;;46.30;33.10;;;;;;;22.38;68.42;99475.44;5032779;28;20049;-85
2022/08/17 20:34:26;;;;;;;39.83;31.85;;;;;;;22.18;69.02;99469.72;5031814;28;20395;-85
2022/08/17 20:37:25;;;;;;;42.75;33.20;;;;;;;22.27;68.76;99466.81;5015251;28;20045;-91
2022/08/17 20:39:51;;;;;;;44.30;29.80;;;;;;;22.25;68.73;99469.91;5034168;28;20084;-91
2022/08/17 20:42:19;;;;;;;43.35;32.08;;;;;;;22.23;68.68;99477.78;5033088;28;20045;-85
2022/08/17 20:44:49;;;;;;;43.50;29.60;;;;;;;22.19;68.62;99479.66;5018611;28;20046;-85
2022/08/17 20:47:24;;;;;;;43.67;31.27;;;;;;;22.06;69.34;99484.44;5027330;28;20430;-86
2022/08/17 20:49:59;;;;;;;40.08;31.50;;;;;;;22.01;69.20;99488.25;5031015;28;20046;-85
2022/08/17 20:52:47;;;;;;;43.60;30.50;;;;;;;21.95;69.57;99503.53;5031847;28;20053;-82
2022/08/17 20:55:36;;;;;;;40.17;31.05;;;;;;;21.89;69.66;99502.13;5030993;28;20096;-82
2022/08/17 20:58:24;;;;;;;40.80;30.30;;;;;;;21.90;69.82;99501.81;5029731;28;20045;-84
2022/08/17 21:00:55;;;;;;;39.45;29.27;;;;;;;22.02;69.56;99503.75;5005275;28;20080;-85
2022/08/17 21:03:21;;;;;;;40.80;30.10;;;;;;;22.02;69.65;99503.75;5011942;28;20521;-85
2022/08/17 21:05:55;;;;;;;38.22;28.67;;;;;;;22.17;69.23;99495.84;5026888;28;20073;-91
2022/08/17 21:08:52;;;;;;;47.35;29.08;;;;;;;22.25;69.14;99503.22;5030824;28;20468;-91
2022/08/17 21:11:26;;;;;;;40.85;31.23;;;;;;;22.20;69.07;99494.34;4996782;28;20481;-83
2022/08/17 21:14:19;;;;;;;40.00;30.38;;;;;;;22.07;69.21;99493.56;5031039;28;20045;-83
2022/08/17 21:17:16;;;;;;;39.58;29.42;;;;;;;21.87;69.74;99499.72;5008291;28;20571;-83
2022/08/17 21:20:00;;;;;;;42.05;31.05;;;;;;;21.94;70.21;99496.38;5023214;28;20049;-83
2022/08/17 21:22:48;;;;;;;39.88;30.85;;;;;;;22.04;69.60;99493.13;5031252;28;20484;-91
2022/08/17 21:25:40;;;;;;;39.97;29.20;;;;;;;22.05;69.44;99499.47;5011892;28;20050;-91
2022/08/17 21:28:21;;;;;;;42.13;31.17;;;;;;;22.08;69.45;99492.41;5012129;28;20104;-85
2022/08/17 21:30:55;;;;;;;40.85;30.85;;;;;;;22.06;69.68;99500.28;5029915;28;20053;-86
2022/08/17 21:33:30;;;;;;;39.75;30.13;;;;;;;22.15;69.64;99489.88;5013749;28;20512;-86
2022/08/17 21:35:58;;;;;;;38.70;29.88;;;;;;;22.21;68.96;99491.22;5031340;28;20211;-79
2022/08/17 21:38:51;;;;;;;44.60;29.20;;;;;;;22.20;69.00;99491.56;5029625;28;20096;-79
2022/08/17 21:41:33;;;;;;;46.35;30.27;;;;;;;22.13;69.42;99495.75;5011157;28;20072;-82
2022/08/17 21:44:10;;;;;;;44.85;31.10;;;;;;;22.16;69.07;99495.06;5022220;28;20033;-82
2022/08/17 21:46:41;;;;;;;36.90;29.55;;;;;;;22.10;69.06;99506.75;5030913;28;20090;-79
2022/08/17 21:49:11;;;;;;;44.38;31.63;;;;;;;22.12;69.08;99510.78;5028198;28;20069;-78
2022/08/17 21:51:48;;;;;;;37.95;28.70;;;;;;;22.13;69.34;99506.84;5030515;28;20132;-83
2022/08/17 21:54:30;;;;;;;41.35;29.80;;;;;;;22.12;69.60;99515.53;5030637;28;20044;-84
2022/08/17 21:56:58;;;;;;;51.08;33.72;;;;;;;22.11;69.18;99502.81;5013648;28;20095;-83
2022/08/17 21:59:29;;;;;;;42.05;30.08;;;;;;;22.02;69.79;99517.63;5028864;28;20064;-84
2022/08/17 22:02:05;;;;;;;41.25;30.80;;;;;;;22.04;69.94;99512.53;5030001;28;20041;-86
2022/08/17 22:04:34;;;;;;;39.75;28.70;;;;;;;22.01;69.79;99515.19;5012809;28;20161;-85
2022/08/17 22:07:02;;;;;;;44.25;30.50;;;;;;;21.90;70.40;99520.41;5030448;28;20593;-79
2022/08/17 22:09:54;;;;;;;38.97;30.05;;;;;;;21.99;70.18;99511.94;5028005;28;20034;-80
2022/08/17 22:12:23;;;;;;;39.08;28.48;;;;;;;21.87;71.12;99515.56;5027700;28;20037;-83
2022/08/17 22:14:54;;;;;;;39.80;29.40;;;;;;;21.73;71.42;99516.69;5030389;28;20047;-83
2022/08/17 22:17:22;;;;;;;44.70;33.53;;;;;;;21.78;71.01;99518.44;5013535;28;20042;-85
2022/08/17 22:19:57;;;;;;;41.78;31.70;;;;;;;21.95;70.44;99511.84;5022084;28;20053;-85
2022/08/17 22:22:30;;;;;;;40.92;31.13;;;;;;;21.92;70.69;99518.09;5011518;28;20034;-83
2022/08/17 22:24:58;;;;;;;40.42;30.15;;;;;;;21.78;70.89;99523.97;4996711;28;20118;-83
2022/08/17 22:27:44;;;;;;;37.42;26.92;;;;;;;21.72;71.48;99526.19;5031375;28;20072;-91
2022/08/17 22:30:41;;;;;;;39.20;29.42;;;;;;;21.82;71.14;99524.91;5046423;28;20045;-91
2022/08/17 22:33:32;;;;;;;40.65;30.48;;;;;;;21.86;71.05;99525.84;5050946;28;20094;-90
2022/08/17 22:36:21;;;;;;;41.00;30.42;;;;;;;21.85;71.06;99528.97;5051017;28;20122;-83
2022/08/17 22:38:48;;;;;;;40.10;30.48;;;;;;;21.78;71.33;99513.66;5049762;28;20044;-83
2022/08/17 22:41:22;;;;;;;42.90;31.40;;;;;;;21.71;71.22;99513.44;5050091;28;20072;-82
2022/08/17 22:43:49;;;;;;;44.88;31.17;;;;;;;21.60;71.46;99520.63;5028554;28;20171;-82
2022/08/17 22:46:14;;;;;;;41.67;31.48;;;;;;;21.57;71.49;99525.72;5039996;28;20529;-82
2022/08/17 22:48:49;;;;;;;46.08;32.15;;;;;;;21.57;71.75;99530.44;5048596;28;20184;-82
2022/08/17 22:51:19;;;;;;;41.85;31.88;;;;;;;21.53;72.12;99533.09;5049569;28;20084;-82
2022/08/17 22:59:42;;;;;;;44.17;30.77;;;;;;;21.14;72.87;99540.88;5049513;28;20099;-91
2022/08/17 23:02:12;;;;;;;40.15;31.40;;;;;;;21.05;73.24;99538.22;5032563;28;20041;-84
2022/08/17 23:04:42;;;;;;;44.92;32.03;;;;;;;21.04;73.64;99542.13;5049918;28;20041;-85
2022/08/17 23:07:08;;;;;;;52.72;31.80;;;;;;;20.94;73.79;99535.00;5032066;28;20408;-80
2022/08/17 23:09:34;;;;;;;44.72;33.35;;;;;;;20.91;73.63;99544.03;5047651;28;20043;-79
2022/08/17 23:12:04;;;;;;;45.88;32.92;;;;;;;20.75;74.15;99541.84;5049778;28;20099;-90
2022/08/17 23:14:30;;;;;;;44.60;32.15;;;;;;;20.75;74.52;99539.09;5042092;28;20041;-90
2022/08/17 23:16:57;;;;;;;45.35;32.53;;;;;;;20.79;74.57;99540.03;5050551;28;20098;-84
2022/08/17 23:19:22;;;;;;;44.60;31.13;;;;;;;20.76;74.90;99537.97;5057883;28;20039;-85
2022/08/17 23:21:51;;;;;;;42.55;33.17;;;;;;;20.81;74.84;99529.44;5050244;28;20045;-86
2022/08/17 23:24:21;;;;;;;47.97;33.75;;;;;;;20.88;74.44;99531.66;5049851;28;20114;-86
2022/08/17 23:26:46;;;;;;;52.28;33.67;;;;;;;20.95;74.88;99528.34;5049737;28;20055;-84
2022/08/17 23:29:12;;;;;;;48.80;35.60;;;;;;;21.00;75.02;99530.91;5030671;28;20438;-84
2022/08/17 23:31:38;;;;;;;51.60;34.47;;;;;;;21.06;74.63;99528.72;5052976;28;20072;-83
2022/08/17 23:34:07;;;;;;;49.15;33.63;;;;;;;20.91;74.77;99527.41;5052476;28;20029;-83
2022/08/17 23:36:33;;;;;;;52.15;36.08;;;;;;;20.95;74.54;99522.81;5034993;28;20044;-81
2022/08/17 23:38:58;;;;;;;45.92;32.88;;;;;;;20.85;74.94;99513.75;5051540;28;20231;-82
2022/08/17 23:41:34;;;;;;;54.28;35.25;;;;;;;20.86;74.40;99525.66;5052395;28;20055;-81
2022/08/17 23:44:01;;;;;;;46.45;33.72;;;;;;;20.76;75.13;99538.78;5044715;28;20125;-81
2022/08/17 23:46:26;;;;;;;48.33;33.70;;;;;;;20.80;74.96;99535.31;5027188;28;20045;-84
2022/08/17 23:48:53;;;;;;;48.33;34.95;;;;;;;20.77;74.51;99540.38;5052294;28;20669;-84
2022/08/17 23:51:26;;;;;;;49.70;36.13;;;;;;;20.65;75.64;99532.00;5053055;28;20041;-86
2022/08/17 23:53:56;;;;;;;49.58;34.83;;;;;;;20.62;75.60;99539.06;5053459;28;20475;-86
2022/08/17 23:56:24;;;;;;;48.65;35.15;;;;;;;20.65;75.40;99543.91;5052771;28;20049;-79
2022/08/17 23:58:51;;;;;;;46.53;35.22;;;;;;;20.69;75.37;99546.81;5050588;28;20049;-78
